Time;durP1;ratioP1;P1;durP2;ratioP2;P2;SDS_P1;SDS_P2;PMS_P1;PMS_P2;Temp;Humidity;BMP_temperature;BMP_pressure;BME280_temperature;BME280_humidity;BME280_pressure;Samples;Min_cycle;Max_cycle;Signal;HPM_P1;HPM_P2
2022/01/09 00:00:42;;;;;;;0.60;0.60;;;4.70;99.90;;;;;;4752066;29;20469;-84
2022/01/09 00:03:09;;;;;;;0.80;0.80;;;4.70;99.90;;;;;;4754203;29;20554;-85
2022/01/09 00:05:38;;;;;;;1.23;0.77;;;4.70;99.90;;;;;;4733969;29;20464;-85
2022/01/09 00:08:06;;;;;;;1.43;0.80;;;4.60;99.90;;;;;;4734080;29;20457;-85
2022/01/09 00:10:34;;;;;;;0.70;0.70;;;4.60;99.90;;;;;;4741576;29;20476;-85
2022/01/09 00:13:00;;;;;;;1.10;0.70;;;4.50;99.90;;;;;;4754183;29;20454;-84
2022/01/09 00:15:27;;;;;;;0.80;0.80;;;4.50;99.90;;;;;;4754137;29;20466;-84
2022/01/09 00:18:02;;;;;;;1.47;0.77;;;4.50;99.90;;;;;;4723051;29;20779;-84
2022/01/09 00:20:31;;;;;;;1.10;0.60;;;4.50;99.90;;;;;;4749601;29;20477;-84
2022/01/09 00:22:58;;;;;;;0.50;0.40;;;4.40;99.90;;;;;;4751503;29;20485;-85
2022/01/09 00:25:28;;;;;;;1.00;0.90;;;4.40;99.90;;;;;;4761653;29;20462;-85
2022/01/09 00:27:57;;;;;;;0.50;0.50;;;4.40;99.90;;;;;;4749551;29;20462;-84
2022/01/09 00:30:24;;;;;;;0.53;0.53;;;4.50;99.90;;;;;;4766644;29;20492;-87
2022/01/09 00:32:52;;;;;;;0.60;0.60;;;4.40;99.90;;;;;;4751174;29;20451;-85
2022/01/09 00:35:25;;;;;;;0.60;0.60;;;4.40;99.90;;;;;;4766881;29;21256;-85
2022/01/09 00:37:54;;;;;;;0.60;0.60;;;4.40;99.90;;;;;;4770069;29;20554;-85
2022/01/09 00:40:24;;;;;;;0.80;0.57;;;4.40;99.90;;;;;;4754466;29;20480;-85
2022/01/09 00:42:55;;;;;;;0.73;0.70;;;4.40;99.90;;;;;;4750779;29;20511;-85
2022/01/09 00:45:51;;;;;;;0.50;0.50;;;4.40;99.90;;;;;;4735731;29;20465;-86
2022/01/09 00:48:25;;;;;;;0.50;0.50;;;4.40;99.90;;;;;;4751616;29;20478;-86
2022/01/09 00:50:52;;;;;;;0.70;0.57;;;4.40;99.90;;;;;;4745722;29;20455;-86
2022/01/09 00:53:18;;;;;;;0.50;0.50;;;4.50;99.90;;;;;;4750930;29;21072;-86
2022/01/09 00:55:53;;;;;;;0.53;0.50;;;4.50;99.90;;;;;;4760789;29;20463;-86
2022/01/09 00:58:20;;;;;;;0.60;0.53;;;4.50;99.90;;;;;;4736282;29;20491;-86
2022/01/09 01:00:46;;;;;;;0.57;0.57;;;4.50;99.90;;;;;;4736950;29;20556;-86
2022/01/09 01:03:13;;;;;;;1.07;0.60;;;4.50;99.90;;;;;;4748238;29;20457;-86
2022/01/09 01:06:00;;;;;;;2.17;0.60;;;4.60;99.90;;;;;;4732262;29;21132;-85
2022/01/09 01:08:27;;;;;;;0.43;0.40;;;4.60;99.90;;;;;;4751854;29;20465;-86
2022/01/09 01:10:55;;;;;;;0.40;0.40;;;4.60;99.90;;;;;;4732222;29;20477;-85
2022/01/09 01:13:23;;;;;;;0.80;0.60;;;4.60;99.90;;;;;;4751535;29;20460;-85
2022/01/09 01:15:50;;;;;;;0.43;0.43;;;4.60;99.90;;;;;;4735088;29;21138;-86
2022/01/09 01:18:22;;;;;;;0.80;0.70;;;4.60;99.90;;;;;;4734292;29;20484;-86
2022/01/09 01:20:49;;;;;;;0.33;0.33;;;4.60;99.90;;;;;;4752746;29;20466;-85
2022/01/09 01:23:16;;;;;;;0.50;0.50;;;4.60;99.90;;;;;;4755131;29;20470;-85
2022/01/09 01:25:50;;;;;;;0.30;0.30;;;4.50;99.90;;;;;;4733914;29;20466;-85
2022/01/09 01:28:18;;;;;;;0.70;0.70;;;4.60;99.90;;;;;;4735180;29;20907;-86
2022/01/09 01:30:47;;;;;;;0.50;0.50;;;4.50;99.90;;;;;;4739929;29;20532;-86
2022/01/09 01:33:14;;;;;;;0.60;0.60;;;4.50;99.90;;;;;;4752011;29;20469;-86
2022/01/09 01:35:41;;;;;;;0.67;0.60;;;4.50;99.90;;;;;;4735796;29;20535;-85
2022/01/09 01:38:08;;;;;;;0.53;0.53;;;4.50;99.90;;;;;;4739675;29;20455;-85
2022/01/09 01:40:41;;;;;;;0.40;0.40;;;4.60;99.90;;;;;;4747879;29;20462;-86
2022/01/09 01:43:08;;;;;;;0.53;0.50;;;4.60;99.90;;;;;;4735222;29;20445;-85
2022/01/09 01:45:39;;;;;;;0.73;0.73;;;4.60;99.90;;;;;;4737028;29;21057;-85
2022/01/09 01:48:06;;;;;;;0.60;0.60;;;4.60;99.90;;;;;;4736046;29;21904;-85
2022/01/09 01:50:46;;;;;;;0.50;0.50;;;4.60;99.90;;;;;;4749186;29;20460;-85
2022/01/09 01:53:16;;;;;;;0.50;0.50;;;4.50;99.90;;;;;;4738584;29;20526;-85
2022/01/09 01:55:52;;;;;;;1.23;0.57;;;4.60;99.90;;;;;;4751770;29;20481;-85
2022/01/09 01:58:19;;;;;;;0.60;0.60;;;4.60;99.90;;;;;;4731663;29;21563;-85
2022/01/09 02:00:47;;;;;;;0.50;0.50;;;4.60;99.90;;;;;;4749932;29;20592;-85
2022/01/09 02:03:17;;;;;;;0.80;0.53;;;4.60;99.90;;;;;;4736096;29;20834;-85
2022/01/09 02:05:45;;;;;;;0.50;0.50;;;4.60;99.90;;;;;;4733925;29;20465;-85
2022/01/09 02:08:13;;;;;;;0.40;0.40;;;4.60;99.90;;;;;;4733481;29;20453;-85
2022/01/09 02:10:43;;;;;;;0.60;0.60;;;4.60;99.90;;;;;;4737868;29;20477;-85
2022/01/09 02:13:09;;;;;;;0.40;0.40;;;4.60;99.90;;;;;;4730787;29;20524;-85
2022/01/09 02:15:44;;;;;;;0.40;0.40;;;4.60;99.90;;;;;;4737546;29;20574;-85
2022/01/09 02:18:12;;;;;;;0.40;0.40;;;4.70;99.90;;;;;;4751678;29;20491;-85
2022/01/09 02:20:41;;;;;;;0.30;0.30;;;4.70;99.90;;;;;;4752775;29;20472;-85
2022/01/09 02:23:10;;;;;;;0.40;0.40;;;4.70;99.90;;;;;;4735509;29;20522;-85
2022/01/09 02:25:38;;;;;;;0.30;0.30;;;4.80;99.90;;;;;;4741203;29;20519;-85
2022/01/09 02:28:08;;;;;;;0.30;0.30;;;4.80;99.90;;;;;;4740852;29;21061;-85
2022/01/09 02:30:39;;;;;;;0.30;0.30;;;4.80;99.90;;;;;;4747144;29;20530;-86
2022/01/09 02:33:13;;;;;;;0.40;0.20;;;4.70;99.90;;;;;;4739261;29;20455;-86
2022/01/09 02:35:45;;;;;;;0.30;0.30;;;4.70;99.90;;;;;;4742275;29;20470;-86
2022/01/09 02:38:13;;;;;;;0.50;0.20;;;4.80;99.90;;;;;;4750041;29;21123;-86
2022/01/09 02:40:40;;;;;;;0.30;0.30;;;4.90;99.90;;;;;;4741930;29;20474;-85
2022/01/09 02:43:11;;;;;;;0.20;0.20;;;5.00;99.90;;;;;;4752458;29;20480;-85
2022/01/09 02:45:38;;;;;;;0.20;0.20;;;5.00;99.90;;;;;;4750770;29;20477;-86
2022/01/09 02:48:09;;;;;;;0.20;0.20;;;5.10;99.90;;;;;;4739674;29;20449;-85
2022/01/09 02:50:59;;;;;;;0.50;0.20;;;5.30;99.90;;;;;;4754933;29;20469;-85
2022/01/09 02:53:32;;;;;;;0.20;0.20;;;5.40;99.90;;;;;;4753754;29;20463;-86
2022/01/09 02:56:00;;;;;;;0.20;0.20;;;5.40;99.90;;;;;;4736361;29;21014;-86
2022/01/09 02:58:34;;;;;;;0.47;0.20;;;5.40;99.90;;;;;;4734032;29;20500;-86
2022/01/09 03:01:03;;;;;;;0.43;0.30;;;5.40;99.90;;;;;;4750986;29;21085;-85
2022/01/09 03:03:32;;;;;;;0.47;0.30;;;5.40;99.90;;;;;;4735532;29;20544;-85
2022/01/09 03:06:01;;;;;;;0.73;0.40;;;5.40;99.90;;;;;;4738906;29;20458;-85
2022/01/09 03:08:27;;;;;;;0.20;0.20;;;5.30;99.90;;;;;;4748608;29;20480;-85
2022/01/09 03:10:56;;;;;;;0.40;0.30;;;5.30;99.90;;;;;;4752904;29;20457;-85
2022/01/09 03:13:23;;;;;;;0.20;0.10;;;5.30;99.90;;;;;;4749984;29;20466;-85
2022/01/09 03:15:50;;;;;;;0.20;0.10;;;5.30;99.90;;;;;;4736582;29;20500;-85
2022/01/09 03:18:22;;;;;;;0.20;0.20;;;5.30;99.90;;;;;;4748571;29;20469;-85
2022/01/09 03:20:48;;;;;;;0.20;0.20;;;5.30;99.90;;;;;;4736533;29;20466;-85
2022/01/09 03:23:14;;;;;;;0.20;0.20;;;5.20;99.90;;;;;;4751604;29;20818;-84
2022/01/09 03:25:41;;;;;;;0.20;0.20;;;5.30;99.90;;;;;;4727001;29;20228;-84
2022/01/09 03:28:08;;;;;;;0.20;0.20;;;5.30;99.90;;;;;;4753276;29;20537;-84
2022/01/09 03:30:42;;;;;;;0.20;0.20;;;5.40;99.90;;;;;;4769193;29;20811;-86
2022/01/09 03:33:08;;;;;;;0.20;0.20;;;5.30;99.90;;;;;;4765667;29;20453;-85
2022/01/09 03:35:35;;;;;;;0.20;0.20;;;5.40;99.90;;;;;;4752554;29;20543;-86
2022/01/09 03:38:02;;;;;;;0.43;0.23;;;5.40;99.90;;;;;;4727407;29;20453;-86
2022/01/09 03:40:31;;;;;;;0.20;0.20;;;5.50;99.90;;;;;;4748216;29;20458;-86
2022/01/09 03:42:58;;;;;;;0.20;0.20;;;5.50;99.90;;;;;;4752025;29;20458;-86
2022/01/09 03:45:25;;;;;;;0.20;0.20;;;5.50;99.90;;;;;;4747683;29;21234;-87
2022/01/09 03:48:03;;;;;;;0.60;0.20;;;5.50;99.90;;;;;;4752038;29;20468;-86
2022/01/09 03:50:31;;;;;;;0.30;0.20;;;5.50;99.90;;;;;;4739703;29;20593;-86
2022/01/09 03:52:59;;;;;;;0.20;0.20;;;5.50;99.90;;;;;;4751721;29;20863;-87
2022/01/09 03:55:27;;;;;;;1.23;0.20;;;5.40;99.90;;;;;;4735096;29;20489;-86
2022/01/09 03:57:54;;;;;;;0.20;0.20;;;5.40;99.90;;;;;;4737749;29;20459;-86
2022/01/09 04:00:23;;;;;;;0.20;0.20;;;5.30;99.90;;;;;;4755796;29;20502;-86
2022/01/09 04:02:54;;;;;;;0.20;0.20;;;5.30;99.90;;;;;;4741801;29;20455;-86
2022/01/09 04:05:37;;;;;;;0.20;0.20;;;5.30;99.90;;;;;;4752528;29;20462;-86
2022/01/09 04:08:03;;;;;;;0.30;0.20;;;5.30;99.90;;;;;;4748671;29;20488;-86
2022/01/09 04:10:40;;;;;;;0.20;0.20;;;5.20;99.90;;;;;;4738150;29;20816;-86
2022/01/09 04:13:06;;;;;;;0.43;0.30;;;5.20;99.90;;;;;;4751436;29;20567;-86
2022/01/09 04:15:34;;;;;;;0.20;0.10;;;5.20;99.90;;;;;;4733321;29;20506;-87
2022/01/09 04:18:03;;;;;;;0.20;0.20;;;5.20;99.90;;;;;;4749936;29;20470;-86
2022/01/09 04:20:35;;;;;;;0.30;0.20;;;5.20;99.90;;;;;;4751463;29;20452;-85
2022/01/09 04:23:01;;;;;;;0.20;0.20;;;5.20;99.90;;;;;;4745680;29;20477;-86
2022/01/09 04:25:33;;;;;;;0.20;0.20;;;5.20;99.90;;;;;;4735530;29;20585;-86
2022/01/09 04:27:59;;;;;;;0.33;0.20;;;5.20;99.90;;;;;;4752490;29;20466;-85
2022/01/09 04:30:25;;;;;;;0.30;0.23;;;5.20;99.90;;;;;;4749548;29;20461;-85
2022/01/09 04:32:51;;;;;;;0.30;0.20;;;5.20;99.90;;;;;;4749130;29;21112;-86
2022/01/09 04:35:20;;;;;;;0.30;0.20;;;5.30;99.90;;;;;;4747680;29;20458;-86
2022/01/09 04:37:48;;;;;;;0.20;0.20;;;5.20;99.90;;;;;;4717393;29;20455;-84
2022/01/09 04:40:15;;;;;;;0.50;0.20;;;5.20;99.90;;;;;;4733878;29;20507;-85
2022/01/09 04:42:49;;;;;;;0.20;0.20;;;5.10;99.90;;;;;;4732400;29;21324;-84
2022/01/09 04:45:22;;;;;;;0.50;0.20;;;5.10;99.90;;;;;;4747845;29;20462;-85
2022/01/09 04:47:52;;;;;;;0.30;0.20;;;5.00;99.90;;;;;;4750242;29;21129;-85
2022/01/09 04:50:25;;;;;;;0.20;0.20;;;4.90;99.90;;;;;;4746876;29;20959;-84
2022/01/09 04:53:04;;;;;;;0.20;0.20;;;4.90;99.90;;;;;;4757861;29;20525;-84
2022/01/09 04:55:38;;;;;;;0.40;0.40;;;4.90;99.90;;;;;;4764741;29;20575;-85
2022/01/09 04:58:06;;;;;;;0.20;0.20;;;4.90;99.90;;;;;;4744150;29;21049;-84
2022/01/09 05:00:56;;;;;;;0.30;0.20;;;4.80;99.90;;;;;;4746102;29;20466;-84
2022/01/09 05:03:37;;;;;;;0.20;0.20;;;4.60;99.90;;;;;;4734327;29;20470;-85
2022/01/09 05:06:08;;;;;;;0.23;0.20;;;4.60;99.90;;;;;;4734043;29;20463;-85
2022/01/09 05:08:41;;;;;;;0.20;0.20;;;4.50;99.90;;;;;;4752441;29;20459;-86
2022/01/09 05:11:09;;;;;;;0.33;0.30;;;4.50;99.90;;;;;;4767300;29;20958;-85
2022/01/09 05:13:38;;;;;;;0.20;0.20;;;4.40;99.90;;;;;;4750869;29;20465;-85
2022/01/09 05:16:11;;;;;;;0.30;0.20;;;4.40;99.90;;;;;;4761611;29;20456;-84
2022/01/09 05:18:57;;;;;;;0.20;0.17;;;4.30;99.90;;;;;;4749480;29;20563;-84
2022/01/09 05:21:25;;;;;;;0.20;0.20;;;4.10;99.90;;;;;;4751094;29;20481;-85
2022/01/09 05:24:13;;;;;;;0.20;0.20;;;3.90;99.90;;;;;;4750890;29;20783;-84
2022/01/09 05:26:40;;;;;;;0.20;0.20;;;3.80;99.90;;;;;;4751518;29;20561;-84
2022/01/09 05:29:06;;;;;;;0.20;0.20;;;3.70;99.90;;;;;;4748101;29;20524;-85
2022/01/09 05:31:32;;;;;;;0.20;0.20;;;3.70;99.90;;;;;;4738356;29;20465;-86
2022/01/09 05:34:02;;;;;;;0.30;0.30;;;3.70;99.90;;;;;;4751664;29;20465;-84
2022/01/09 05:36:33;;;;;;;2.00;1.70;;;3.60;99.90;;;;;;4743708;29;20450;-84
2022/01/09 05:39:11;;;;;;;0.20;0.20;;;3.50;99.90;;;;;;4733566;29;20585;-84
2022/01/09 05:41:42;;;;;;;0.30;0.20;;;3.50;99.90;;;;;;4734825;29;21172;-84
2022/01/09 05:44:09;;;;;;;0.20;0.20;;;3.50;99.90;;;;;;4745556;29;20463;-85
2022/01/09 05:46:39;;;;;;;0.10;0.10;;;3.50;99.90;;;;;;4742678;29;20469;-84
2022/01/09 05:49:09;;;;;;;0.20;0.20;;;3.40;99.90;;;;;;4755074;29;20458;-84
2022/01/09 05:51:36;;;;;;;0.20;0.20;;;3.40;99.90;;;;;;4749809;29;20466;-84
2022/01/09 05:54:08;;;;;;;0.20;0.20;;;3.40;99.90;;;;;;4734833;29;20582;-85
2022/01/09 05:56:35;;;;;;;0.10;0.10;;;3.30;99.90;;;;;;4751242;29;20501;-84
2022/01/09 05:59:10;;;;;;;0.20;0.20;;;3.30;99.90;;;;;;4750683;29;20497;-84
2022/01/09 06:01:39;;;;;;;0.30;0.23;;;3.30;99.90;;;;;;4747507;29;21141;-84
2022/01/09 06:04:06;;;;;;;0.20;0.20;;;3.30;99.90;;;;;;4732316;29;20583;-85
2022/01/09 06:06:38;;;;;;;0.20;0.20;;;3.30;99.90;;;;;;4748978;29;20457;-84
2022/01/09 06:09:05;;;;;;;0.77;0.30;;;3.30;99.90;;;;;;4748331;29;20544;-84
2022/01/09 06:11:44;;;;;;;0.20;0.20;;;3.30;99.90;;;;;;4746709;29;21324;-84
2022/01/09 06:14:11;;;;;;;0.60;0.20;;;3.30;99.90;;;;;;4733420;29;20442;-84
2022/01/09 06:16:37;;;;;;;0.20;0.20;;;3.20;99.90;;;;;;4737433;29;22172;-86
2022/01/09 06:19:04;;;;;;;0.20;0.20;;;3.20;99.90;;;;;;4749189;29;20498;-84
2022/01/09 06:21:30;;;;;;;0.20;0.20;;;3.20;99.90;;;;;;4731102;29;20485;-83
2022/01/09 06:23:56;;;;;;;0.20;0.20;;;3.10;99.90;;;;;;4733781;29;20524;-84
2022/01/09 06:26:24;;;;;;;0.23;0.23;;;3.10;99.90;;;;;;4754441;29;20458;-85
2022/01/09 06:28:51;;;;;;;0.50;0.37;;;3.10;99.90;;;;;;4760752;29;20549;-84
2022/01/09 06:31:17;;;;;;;0.27;0.20;;;3.10;99.90;;;;;;4754737;29;21535;-85
2022/01/09 06:33:43;;;;;;;0.20;0.20;;;3.00;99.90;;;;;;4750752;29;20616;-85
2022/01/09 06:36:10;;;;;;;0.20;0.20;;;2.90;99.90;;;;;;4744634;29;20862;-85
2022/01/09 06:38:39;;;;;;;0.20;0.20;;;2.80;99.90;;;;;;4745416;29;20489;-86
2022/01/09 06:41:06;;;;;;;0.20;0.20;;;2.80;99.90;;;;;;4748950;29;20469;-85
2022/01/09 06:43:54;;;;;;;0.20;0.20;;;2.80;99.90;;;;;;4737639;29;20469;-84
2022/01/09 06:46:30;;;;;;;0.20;0.20;;;2.80;99.90;;;;;;4746738;29;20459;-85
2022/01/09 06:49:02;;;;;;;0.30;0.30;;;2.80;99.90;;;;;;4734471;29;20888;-85
2022/01/09 06:51:28;;;;;;;0.60;0.30;;;2.70;99.90;;;;;;4736032;29;20469;-85
2022/01/09 06:53:55;;;;;;;0.63;0.20;;;2.70;99.90;;;;;;4740494;29;20454;-86
2022/01/09 06:56:21;;;;;;;0.20;0.10;;;2.70;99.90;;;;;;4735956;29;20549;-86
2022/01/09 06:58:47;;;;;;;0.30;0.23;;;2.70;99.90;;;;;;4748417;29;20494;-86
2022/01/09 07:01:14;;;;;;;1.03;0.20;;;2.70;99.90;;;;;;4715632;29;20490;-86
2022/01/09 07:03:45;;;;;;;0.30;0.20;;;2.70;99.90;;;;;;4739122;29;20253;-86
2022/01/09 07:06:11;;;;;;;0.20;0.20;;;2.70;99.90;;;;;;4750585;29;20545;-86
2022/01/09 07:08:38;;;;;;;0.60;0.30;;;2.80;99.90;;;;;;4746894;29;20454;-87
2022/01/09 07:11:04;;;;;;;0.20;0.20;;;2.70;99.90;;;;;;4731376;29;20693;-86
2022/01/09 07:13:32;;;;;;;0.20;0.20;;;2.80;99.90;;;;;;4728092;29;20468;-85
2022/01/09 07:15:58;;;;;;;0.30;0.27;;;2.70;99.90;;;;;;4734644;29;21461;-85
2022/01/09 07:18:25;;;;;;;0.20;0.20;;;2.80;99.90;;;;;;4747318;29;20983;-85
2022/01/09 07:20:59;;;;;;;0.40;0.40;;;2.80;99.90;;;;;;4743195;29;22806;-85
2022/01/09 07:23:25;;;;;;;0.40;0.40;;;2.80;99.90;;;;;;4740071;29;20808;-86
2022/01/09 07:25:52;;;;;;;0.30;0.20;;;2.70;99.90;;;;;;4749448;29;20545;-85
2022/01/09 07:28:19;;;;;;;0.40;0.20;;;2.80;99.90;;;;;;4744295;29;20492;-85
2022/01/09 07:30:46;;;;;;;0.50;0.50;;;2.70;99.90;;;;;;4744642;29;20919;-85
2022/01/09 07:33:14;;;;;;;0.50;0.30;;;2.70;99.90;;;;;;4734438;29;20468;-85
2022/01/09 07:35:40;;;;;;;0.50;0.50;;;2.80;99.90;;;;;;4735740;29;20574;-85
2022/01/09 07:38:06;;;;;;;0.43;0.43;;;2.80;99.90;;;;;;4739697;29;20447;-85
2022/01/09 07:40:34;;;;;;;0.50;0.50;;;2.80;99.90;;;;;;4748163;29;20802;-86
2022/01/09 07:43:00;;;;;;;1.33;0.20;;;2.80;99.90;;;;;;4733403;29;20553;-86
2022/01/09 07:45:33;;;;;;;0.30;0.30;;;2.80;99.90;;;;;;4750608;29;20458;-87
2022/01/09 07:48:00;;;;;;;0.20;0.20;;;2.80;99.90;;;;;;4746750;29;20459;-84
2022/01/09 07:50:28;;;;;;;0.30;0.30;;;2.80;99.90;;;;;;4750926;29;20466;-85
2022/01/09 07:52:56;;;;;;;0.80;0.27;;;2.80;99.90;;;;;;4749276;29;21156;-86
2022/01/09 07:55:22;;;;;;;0.30;0.30;;;2.80;99.90;;;;;;4725866;29;20478;-85
2022/01/09 07:57:49;;;;;;;0.30;0.30;;;2.80;99.90;;;;;;4757362;29;20498;-87
2022/01/09 08:00:17;;;;;;;0.60;0.50;;;2.90;99.90;;;;;;4735506;29;20502;-85
2022/01/09 08:02:56;;;;;;;0.70;0.70;;;2.90;99.90;;;;;;4734285;29;20457;-86
2022/01/09 08:05:22;;;;;;;2.30;1.57;;;3.00;99.90;;;;;;4743408;29;20462;-86
2022/01/09 08:07:50;;;;;;;1.80;1.10;;;3.00;99.90;;;;;;4736402;29;20458;-85
2022/01/09 08:10:16;;;;;;;1.87;1.40;;;3.10;99.90;;;;;;4728753;29;20459;-86
2022/01/09 08:12:45;;;;;;;2.40;1.50;;;3.20;99.90;;;;;;4746952;29;20535;-86
2022/01/09 08:15:14;;;;;;;2.10;1.30;;;3.20;99.90;;;;;;4751197;29;20513;-87
2022/01/09 08:17:45;;;;;;;4.70;2.80;;;3.30;99.90;;;;;;4745273;29;20483;-86
2022/01/09 08:20:17;;;;;;;3.93;2.40;;;3.40;99.90;;;;;;4730648;29;20495;-85
2022/01/09 08:22:43;;;;;;;3.20;2.80;;;3.40;99.90;;;;;;4746454;29;20467;-86
2022/01/09 08:25:19;;;;;;;5.43;3.20;;;3.40;99.90;;;;;;4743818;29;20463;-86
2022/01/09 08:27:46;;;;;;;6.53;3.77;;;3.40;99.90;;;;;;4743073;29;20454;-86
2022/01/09 08:30:20;;;;;;;7.60;3.83;;;3.40;99.90;;;;;;4744650;29;20447;-85
2022/01/09 08:32:47;;;;;;;8.80;4.70;;;3.40;99.90;;;;;;4730352;29;20996;-86
2022/01/09 08:35:14;;;;;;;4.80;3.07;;;3.50;99.90;;;;;;4750370;29;20479;-84
2022/01/09 08:40:54;;;;;;;10.33;4.13;;;3.50;99.90;;;;;;4775834;24;20888;-86
2022/01/09 08:43:25;;;;;;;11.30;4.93;;;3.50;99.90;;;;;;4740023;29;20534;-84
2022/01/09 08:45:51;;;;;;;7.80;3.20;;;3.60;99.90;;;;;;4736239;29;20464;-85
2022/01/09 08:48:26;;;;;;;6.80;3.87;;;3.60;99.90;;;;;;4758469;29;20458;-96
2022/01/09 08:51:08;;;;;;;3.57;1.73;;;3.60;99.90;;;;;;4770339;29;20519;-94
2022/01/09 08:53:37;;;;;;;12.30;2.00;;;3.70;99.90;;;;;;4753801;29;20466;-87
2022/01/09 08:56:13;;;;;;;6.63;2.00;;;3.60;99.90;;;;;;4740975;29;20747;-87
2022/01/09 08:58:41;;;;;;;5.50;1.83;;;3.60;99.90;;;;;;4757565;29;20980;-87
2022/01/09 09:01:07;;;;;;;4.93;2.20;;;3.60;99.90;;;;;;4745641;29;20481;-87
2022/01/09 09:03:35;;;;;;;7.03;2.30;;;3.70;99.90;;;;;;4745325;29;20443;-87
2022/01/09 09:06:01;;;;;;;2.87;1.60;;;3.70;99.90;;;;;;4745213;29;20201;-87
2022/01/09 09:08:27;;;;;;;3.40;1.40;;;3.80;99.90;;;;;;4753647;29;20801;-87
2022/01/09 09:10:53;;;;;;;3.10;1.80;;;3.80;99.90;;;;;;4775914;29;20460;-87
2022/01/09 09:13:18;;;;;;;3.77;1.30;;;3.80;99.90;;;;;;4765820;29;20185;-87
2022/01/09 09:15:44;;;;;;;3.30;1.43;;;3.80;99.90;;;;;;4755330;29;20251;-87
2022/01/09 09:18:10;;;;;;;4.40;1.60;;;3.80;99.90;;;;;;4743749;29;20197;-87
2022/01/09 09:20:36;;;;;;;3.73;1.70;;;3.90;99.90;;;;;;4759810;29;20233;-88
2022/01/09 09:23:02;;;;;;;3.10;1.03;;;3.90;99.90;;;;;;4759326;29;20597;-87
2022/01/09 09:25:28;;;;;;;5.30;1.53;;;4.00;99.90;;;;;;4755053;29;20471;-87
2022/01/09 09:27:54;;;;;;;4.97;2.40;;;4.10;99.90;;;;;;4745535;29;20456;-87
2022/01/09 09:30:19;;;;;;;3.10;2.03;;;4.20;99.90;;;;;;4746195;29;20229;-86
2022/01/09 09:32:45;;;;;;;2.20;1.90;;;4.30;99.90;;;;;;4761119;29;20614;-87
2022/01/09 09:35:11;;;;;;;3.17;1.70;;;4.50;99.90;;;;;;4744057;29;20233;-86
2022/01/09 09:37:38;;;;;;;2.43;1.60;;;4.80;99.90;;;;;;4761380;29;20214;-87
2022/01/09 09:40:04;;;;;;;3.43;1.40;;;5.00;99.90;;;;;;4760371;29;20491;-87
2022/01/09 09:42:30;;;;;;;2.50;1.30;;;5.10;99.90;;;;;;4758555;29;20868;-86
2022/01/09 09:45:01;;;;;;;3.53;1.30;;;5.40;99.90;;;;;;4758347;29;20852;-86
2022/01/09 09:47:27;;;;;;;2.60;1.30;;;5.50;99.90;;;;;;4745227;29;20208;-87
2022/01/09 09:49:53;;;;;;;2.20;1.40;;;5.50;99.90;;;;;;4759245;29;20490;-87
2022/01/09 09:52:19;;;;;;;4.33;1.60;;;5.40;99.90;;;;;;4757757;29;20475;-87
2022/01/09 09:54:49;;;;;;;4.90;1.47;;;5.20;99.90;;;;;;4743316;29;20200;-87
2022/01/09 09:57:15;;;;;;;2.80;1.80;;;5.20;99.90;;;;;;4758605;29;20265;-88
2022/01/09 09:59:41;;;;;;;4.70;1.40;;;5.30;99.90;;;;;;4759452;29;20502;-88
2022/01/09 10:02:15;;;;;;;2.57;1.30;;;5.50;99.90;;;;;;4758294;29;20595;-88
2022/01/09 10:05:01;;;;;;;3.77;1.40;;;5.70;99.90;;;;;;4762714;29;20811;-87
2022/01/09 10:07:30;;;;;;;5.87;1.70;;;5.50;99.90;;;;;;4739702;29;21050;-87
2022/01/09 10:09:59;;;;;;;3.77;1.60;;;5.30;99.90;;;;;;4761530;29;20874;-88
2022/01/09 10:12:30;;;;;;;5.90;1.90;;;5.10;99.90;;;;;;4757539;29;20540;-87
2022/01/09 10:14:58;;;;;;;1.37;1.10;;;5.00;99.90;;;;;;4760411;29;20573;-88
2022/01/09 10:17:25;;;;;;;1.17;1.07;;;4.90;99.90;;;;;;4742405;29;21376;-87
2022/01/09 10:20:00;;;;;;;2.07;1.30;;;4.80;99.90;;;;;;4743928;29;21189;-87
2022/01/09 10:22:33;;;;;;;1.80;1.30;;;4.70;99.90;;;;;;4766406;29;20947;-87
2022/01/09 10:25:27;;;;;;;8.37;2.40;;;4.70;99.90;;;;;;4775105;29;20479;-87
2022/01/09 10:28:09;;;;;;;8.63;2.20;;;4.80;99.90;;;;;;4760736;29;21701;-88
2022/01/09 10:30:50;;;;;;;2.13;1.37;;;5.10;99.90;;;;;;4759021;29;21911;-87
2022/01/09 10:33:19;;;;;;;3.50;1.13;;;5.60;99.90;;;;;;4759643;29;20458;-87
2022/01/09 10:35:46;;;;;;;4.60;1.40;;;5.90;99.90;;;;;;4758895;29;20480;-87
2022/01/09 10:38:17;;;;;;;5.33;1.80;;;6.00;99.90;;;;;;4762892;29;20479;-87
2022/01/09 10:40:49;;;;;;;3.63;1.50;;;6.20;99.90;;;;;;4761544;29;20504;-87
2022/01/09 10:43:19;;;;;;;4.03;1.40;;;6.10;99.90;;;;;;4757483;29;20481;-87
2022/01/09 10:45:49;;;;;;;3.27;1.30;;;6.50;99.90;;;;;;4764045;29;20542;-87
2022/01/09 10:48:21;;;;;;;1.93;1.23;;;6.50;99.90;;;;;;4765842;29;20510;-87
2022/01/09 10:50:48;;;;;;;1.97;1.23;;;6.20;99.90;;;;;;4750390;29;20470;-88
2022/01/09 10:53:32;;;;;;;4.83;1.00;;;5.80;99.90;;;;;;4763353;29;21171;-88
2022/01/09 10:56:14;;;;;;;4.80;1.80;;;5.50;99.90;;;;;;4775901;29;20568;-87
2022/01/09 10:58:56;;;;;;;2.83;1.40;;;5.40;99.90;;;;;;4761448;29;20538;-87
2022/01/09 11:01:29;;;;;;;2.30;1.83;;;5.30;99.90;;;;;;4765766;29;20461;-87
2022/01/09 11:04:07;;;;;;;2.57;1.50;;;5.30;99.90;;;;;;4760861;29;20462;-88
2022/01/09 11:06:35;;;;;;;4.77;2.07;;;5.10;99.90;;;;;;4759448;29;20838;-87
2022/01/09 11:09:04;;;;;;;3.33;1.77;;;5.00;99.90;;;;;;4756181;29;20550;-88
2022/01/09 11:11:50;;;;;;;4.10;2.20;;;5.00;99.90;;;;;;4756095;29;20481;-91
2022/01/09 11:14:21;;;;;;;3.90;3.57;;;5.10;99.90;;;;;;4758704;29;20973;-87
2022/01/09 11:16:51;;;;;;;2.27;1.63;;;5.00;99.90;;;;;;4755834;29;20579;-91
2022/01/09 11:19:26;;;;;;;2.00;1.40;;;5.00;99.90;;;;;;4744632;29;20458;-85
2022/01/09 11:22:13;;;;;;;3.10;2.20;;;5.00;99.90;;;;;;4743824;29;20454;-95
2022/01/09 11:25:06;;;;;;;2.67;1.10;;;5.30;99.90;;;;;;4745646;29;20525;-88
2022/01/09 11:27:50;;;;;;;2.50;0.77;;;5.70;99.90;;;;;;4759392;29;21052;-87
2022/01/09 11:30:20;;;;;;;1.10;0.93;;;6.30;99.90;;;;;;4760297;29;20912;-87
2022/01/09 11:33:44;;;;;;;3.60;1.70;;;6.30;99.90;;;;;;4757837;29;20537;-88
2022/01/09 11:36:36;;;;;;;1.73;0.83;;;6.50;99.90;;;;;;4703440;30;20874;-88
2022/01/09 11:39:14;;;;;;;1.43;0.90;;;7.20;99.90;;;;;;4702400;30;20501;-88
2022/01/09 11:41:41;;;;;;;3.63;1.10;;;7.10;99.90;;;;;;4727345;29;20560;-88
2022/01/09 11:44:13;;;;;;;0.73;0.67;;;7.00;99.90;;;;;;4745201;29;20735;-89
2022/01/09 11:46:59;;;;;;;1.23;0.93;;;6.90;99.90;;;;;;4742591;29;20515;-89
2022/01/09 11:49:26;;;;;;;1.53;0.70;;;7.10;99.90;;;;;;4744057;29;20526;-87
2022/01/09 11:51:54;;;;;;;2.07;0.80;;;7.60;99.90;;;;;;4758116;29;20869;-88
2022/01/09 11:54:22;;;;;;;1.67;1.00;;;8.00;99.90;;;;;;4760878;29;20559;-89
2022/01/09 11:56:49;;;;;;;2.20;1.03;;;7.70;99.90;;;;;;4745598;29;21756;-90
2022/01/09 11:59:37;;;;;;;1.77;0.90;;;8.30;99.90;;;;;;4759172;29;20485;-91
2022/01/09 12:02:17;;;;;;;2.60;1.30;;;8.10;99.90;;;;;;4759554;29;20458;-89
2022/01/09 12:04:43;;;;;;;3.63;1.57;;;7.70;99.90;;;;;;4756974;29;21127;-90
2022/01/09 12:07:13;;;;;;;2.53;1.00;;;7.40;99.90;;;;;;4767031;29;20455;-91
2022/01/09 12:09:51;;;;;;;1.77;1.10;;;7.30;99.90;;;;;;4761140;29;20546;-88
2022/01/09 12:12:22;;;;;;;7.10;2.10;;;7.90;99.90;;;;;;4756837;29;20989;-89
2022/01/09 12:15:06;;;;;;;1.67;1.17;;;8.00;99.90;;;;;;4758251;29;20560;-88
2022/01/09 12:17:38;;;;;;;2.60;1.00;;;7.80;99.90;;;;;;4763300;29;20470;-90
2022/01/09 12:20:16;;;;;;;4.57;1.67;;;7.30;99.90;;;;;;4752848;29;20935;-88
2022/01/09 12:22:50;;;;;;;4.57;1.40;;;6.50;99.90;;;;;;4769189;29;20477;-89
2022/01/09 12:25:22;;;;;;;1.50;0.80;;;6.30;99.90;;;;;;4764365;29;20759;-88
2022/01/09 12:27:54;;;;;;;2.40;0.90;;;6.20;99.90;;;;;;4759293;29;20791;-90
2022/01/09 12:30:33;;;;;;;2.40;0.80;;;6.20;99.90;;;;;;4763778;29;20532;-89
2022/01/09 12:33:05;;;;;;;4.97;1.23;;;6.00;99.90;;;;;;4763949;29;20553;-88
2022/01/09 12:35:32;;;;;;;3.50;0.93;;;5.80;99.90;;;;;;4739173;29;20472;-89
2022/01/09 12:38:00;;;;;;;2.97;0.93;;;5.70;99.90;;;;;;4757195;29;20675;-89
2022/01/09 12:40:28;;;;;;;3.90;1.33;;;5.70;99.90;;;;;;4744407;29;20535;-90
2022/01/09 12:42:56;;;;;;;5.23;1.13;;;5.50;99.90;;;;;;4758038;29;20777;-89
2022/01/09 12:45:24;;;;;;;4.93;0.93;;;5.40;99.90;;;;;;4759311;29;20462;-89
2022/01/09 12:47:50;;;;;;;1.30;0.90;;;5.30;99.90;;;;;;4755935;29;21045;-89
2022/01/09 12:50:16;;;;;;;2.33;1.63;;;5.30;99.90;;;;;;4748288;29;20495;-88
2022/01/09 12:52:44;;;;;;;1.53;1.23;;;5.40;99.90;;;;;;4758238;29;20505;-88
2022/01/09 12:55:12;;;;;;;5.40;1.60;;;5.30;99.90;;;;;;4740623;29;20728;-87
2022/01/09 12:58:04;;;;;;;6.10;1.10;;;5.30;99.90;;;;;;4734086;29;21553;-88
2022/01/09 13:00:35;;;;;;;3.10;1.30;;;5.90;99.90;;;;;;4748001;29;20494;-91
2022/01/09 13:03:03;;;;;;;5.77;1.53;;;7.90;99.90;;;;;;4736402;29;20464;-87
2022/01/09 13:05:29;;;;;;;2.63;1.20;;;9.90;99.90;;;;;;4752501;29;20543;-89
2022/01/09 13:07:57;;;;;;;4.00;1.70;;;10.70;99.40;;;;;;4753959;29;20462;-90
2022/01/09 13:10:34;;;;;;;1.63;1.10;;;11.30;96.50;;;;;;4750008;29;20382;-90
2022/01/09 13:13:10;;;;;;;3.30;1.23;;;10.10;97.80;;;;;;4734534;29;20553;-89
2022/01/09 13:15:38;;;;;;;2.43;1.30;;;8.80;99.90;;;;;;4740528;29;21142;-86
2022/01/09 13:18:05;;;;;;;3.20;1.30;;;7.90;99.90;;;;;;4741286;29;20546;-88